createdAt,value
2018-11-27T00:01:34.650Z,53.93
2018-11-27T00:04:12.241Z,47.83
2018-11-27T00:06:48.104Z,52.40
2018-11-27T00:09:21.996Z,49.30
2018-11-27T00:11:58.237Z,50.87
2018-11-27T00:14:31.937Z,53.60
2018-11-27T00:17:05.566Z,49.63
2018-11-27T00:19:39.807Z,51.77
2018-11-27T00:22:16.375Z,48.87
2018-11-27T00:24:49.994Z,53.07
2018-11-27T00:27:22.961Z,57.97
2018-11-27T00:29:56.769Z,53.27
2018-11-27T00:32:29.782Z,55.50
2018-11-27T00:35:03.466Z,56.77
2018-11-27T00:37:40.424Z,54.83
2018-11-27T00:40:19.354Z,58.40
2018-11-27T00:42:52.704Z,55.70
2018-11-27T00:45:27.160Z,61.87
2018-11-27T00:48:02.609Z,57.70
2018-11-27T00:50:36.392Z,58.00
2018-11-27T00:53:11.219Z,60.43
2018-11-27T00:55:44.042Z,57.70
2018-11-27T00:58:16.744Z,51.87
2018-11-27T01:00:52.531Z,53.23
2018-11-27T01:03:30.570Z,52.40
2018-11-27T01:06:03.618Z,51.33
2018-11-27T01:08:36.950Z,51.40
2018-11-27T01:11:09.925Z,48.37
2018-11-27T01:13:42.674Z,55.50
2018-11-27T01:16:16.077Z,53.20
2018-11-27T01:18:49.348Z,56.30
2018-11-27T01:21:23.230Z,56.53
2018-11-27T01:23:56.782Z,57.10
2018-11-27T01:26:29.672Z,52.10
2018-11-27T01:29:02.440Z,53.00
2018-11-27T01:31:35.868Z,48.27
2018-11-27T01:34:08.570Z,51.20
2018-11-27T01:36:41.441Z,57.30
2018-11-27T01:39:15.834Z,58.83
2018-11-27T01:41:48.630Z,64.07
2018-11-27T01:44:21.374Z,64.03
2018-11-27T01:46:55.855Z,65.60
2018-11-27T01:49:28.862Z,62.10
2018-11-27T01:52:01.771Z,60.97
2018-11-27T01:54:35.192Z,61.37
2018-11-27T01:57:08.158Z,53.40
2018-11-27T01:59:40.962Z,58.97
2018-11-27T02:02:16.336Z,55.10
2018-11-27T02:04:49.225Z,62.50
2018-11-27T02:07:22.169Z,56.73
2018-11-27T02:09:55.822Z,66.03
2018-11-27T02:12:30.098Z,61.58
2018-11-27T02:15:05.315Z,52.55
2018-11-27T02:17:38.736Z,54.50
2018-11-27T02:20:13.184Z,60.17
2018-11-27T02:22:49.407Z,61.65
2018-11-27T02:25:27.608Z,59.70
2018-11-27T02:28:00.701Z,58.83
2018-11-27T02:30:33.509Z,64.90
2018-11-27T02:33:08.997Z,55.87
2018-11-27T02:35:42.093Z,58.85
2018-11-27T02:38:14.872Z,61.63
2018-11-27T02:40:48.118Z,57.33
2018-11-27T02:43:20.941Z,59.13
2018-11-27T02:45:54.247Z,58.67
2018-11-27T02:48:27.607Z,53.37
2018-11-27T02:51:00.519Z,59.07
2018-11-27T02:53:33.435Z,56.10
2018-11-27T02:56:06.861Z,55.43
2018-11-27T02:58:40.123Z,55.30
2018-11-27T03:01:13.046Z,67.57
2018-11-27T03:03:46.412Z,68.67
2018-11-27T03:06:19.590Z,63.37
2018-11-27T03:08:53.338Z,53.47
2018-11-27T03:11:26.658Z,65.30
2018-11-27T03:13:59.541Z,67.60
2018-11-27T03:16:32.536Z,72.77
2018-11-27T03:19:06.571Z,65.70
2018-11-27T03:21:39.691Z,66.40
2018-11-27T03:24:13.602Z,69.00
2018-11-27T03:26:46.991Z,67.17
2018-11-27T03:29:20.090Z,68.13
2018-11-27T03:31:53.979Z,80.32
2018-11-27T03:34:28.403Z,79.37
2018-11-27T03:37:02.986Z,76.00
2018-11-27T03:39:36.359Z,61.63
2018-11-27T03:42:09.640Z,59.27
2018-11-27T03:44:42.723Z,81.03
2018-11-27T03:47:15.588Z,85.90
2018-11-27T03:49:48.978Z,73.53
2018-11-27T03:52:21.804Z,80.73
2018-11-27T03:54:55.156Z,79.43
2018-11-27T03:57:28.929Z,72.43
2018-11-27T04:00:01.830Z,91.37
2018-11-27T04:02:37.418Z,93.80
2018-11-27T04:05:12.407Z,78.97
2018-11-27T04:07:45.334Z,104.80
2018-11-27T04:10:20.324Z,104.57
2018-11-27T04:12:53.672Z,99.70
2018-11-27T04:15:26.537Z,130.02
2018-11-27T04:17:59.362Z,119.43
2018-11-27T04:20:32.744Z,101.73
2018-11-27T04:23:05.588Z,124.70
2018-11-27T04:25:38.587Z,115.30
2018-11-27T04:28:13.014Z,105.67
2018-11-27T04:30:46.410Z,110.03
2018-11-27T04:33:19.206Z,113.07
2018-11-27T04:35:52.537Z,119.27
2018-11-27T04:38:25.424Z,116.83
2018-11-27T04:40:58.274Z,104.40
2018-11-27T04:43:31.606Z,95.43
2018-11-27T04:46:04.745Z,102.20
2018-11-27T04:48:37.678Z,118.33
2018-11-27T04:51:10.987Z,119.47
2018-11-27T04:53:43.911Z,116.93
2018-11-27T04:56:17.828Z,127.62
2018-11-27T04:58:51.318Z,103.13
2018-11-27T05:01:25.334Z,99.40
2018-11-27T05:03:58.699Z,103.30
2018-11-27T05:06:31.742Z,97.47
2018-11-27T05:09:09.049Z,115.63
2018-11-27T05:11:43.029Z,121.43
2018-11-27T05:14:15.702Z,112.27
2018-11-27T05:16:49.012Z,108.63
2018-11-27T05:19:22.285Z,114.77
2018-11-27T05:21:56.452Z,137.23
2018-11-27T05:24:31.083Z,115.77
2018-11-27T05:27:05.049Z,107.87
2018-11-27T05:29:37.854Z,105.30
2018-11-27T05:32:12.533Z,130.60
2018-11-27T05:34:47.391Z,125.40
2018-11-27T05:37:20.575Z,110.40
2018-11-27T05:39:53.974Z,114.17
2018-11-27T05:42:27.772Z,108.55
2018-11-27T05:45:14.382Z,104.90
2018-11-27T05:47:48.328Z,94.77
2018-11-27T05:50:21.126Z,79.30
2018-11-27T05:52:56.579Z,78.77
2018-11-27T05:55:30.837Z,77.87
2018-11-27T05:58:06.352Z,97.05
2018-11-27T06:00:40.718Z,74.33
2018-11-27T06:03:13.633Z,70.73
2018-11-27T06:05:47.755Z,67.73
2018-11-27T06:08:22.516Z,62.87
2018-11-27T06:10:55.905Z,67.03
2018-11-27T06:13:29.236Z,64.83
2018-11-27T06:16:02.333Z,78.28
2018-11-27T06:18:35.202Z,67.27
2018-11-27T06:21:08.894Z,77.27
2018-11-27T06:23:41.745Z,65.80
2018-11-27T06:26:14.837Z,56.97
2018-11-27T06:28:53.198Z,71.12
2018-11-27T06:31:26.551Z,66.17
2018-11-27T06:33:59.420Z,63.43
2018-11-27T06:36:32.622Z,56.00
2018-11-27T06:39:09.138Z,62.40
2018-11-27T06:41:41.923Z,67.77
2018-11-27T06:44:15.909Z,61.50
2018-11-27T06:46:48.685Z,59.70
2018-11-27T06:49:21.898Z,62.67
2018-11-27T06:51:56.130Z,60.00
2018-11-27T06:54:30.329Z,60.03
2018-11-27T06:57:03.790Z,51.33
2018-11-27T06:59:38.214Z,57.60
2018-11-27T07:02:10.958Z,62.17
2018-11-27T07:04:44.489Z,68.80
2018-11-27T07:07:18.545Z,58.80
2018-11-27T07:09:52.118Z,58.47
2018-11-27T07:12:25.300Z,62.03
2018-11-27T07:14:58.651Z,55.33
2018-11-27T07:17:31.521Z,51.13
2018-11-27T07:20:11.884Z,57.70
2018-11-27T07:22:46.743Z,52.70
2018-11-27T07:25:24.337Z,58.53
2018-11-27T07:27:58.751Z,55.07
2018-11-27T07:30:33.233Z,59.47
2018-11-27T07:33:09.475Z,60.00
2018-11-27T07:35:42.893Z,62.73
2018-11-27T07:38:16.627Z,52.03
2018-11-27T07:40:51.372Z,54.30
2018-11-27T07:43:25.694Z,47.30
2018-11-27T07:45:59.044Z,50.23
2018-11-27T07:48:31.937Z,50.83
2018-11-27T07:51:06.398Z,47.10
2018-11-27T07:53:39.271Z,45.43
2018-11-27T07:56:12.273Z,48.93
2018-11-27T07:58:46.799Z,51.07
2018-11-27T08:01:22.776Z,41.80
2018-11-27T08:03:57.311Z,39.17
2018-11-27T08:06:31.466Z,35.13
2018-11-27T08:09:08.680Z,34.27
2018-11-27T08:11:41.951Z,30.30
2018-11-27T08:14:16.417Z,30.50
2018-11-27T08:16:49.897Z,32.33
2018-11-27T08:19:22.736Z,33.67
2018-11-27T08:21:56.547Z,31.67
2018-11-27T08:24:29.675Z,29.47
2018-11-27T08:27:02.528Z,29.03
2018-11-27T08:29:39.030Z,31.53
2018-11-27T08:32:13.152Z,35.00
2018-11-27T08:34:45.996Z,27.80
2018-11-27T08:37:19.575Z,27.40
2018-11-27T08:39:53.029Z,24.10
2018-11-27T08:42:25.915Z,24.27
2018-11-27T08:45:00.751Z,24.27
2018-11-27T08:47:35.027Z,23.00
2018-11-27T08:50:24.401Z,21.30
2018-11-27T08:53:05.435Z,24.37
2018-11-27T08:55:43.491Z,25.23
2018-11-27T08:58:21.490Z,21.03
2018-11-27T09:01:04.409Z,22.30
2018-11-27T09:03:37.499Z,21.77
2018-11-27T09:06:11.757Z,21.40
2018-11-27T09:08:45.631Z,21.43
2018-11-27T09:11:18.352Z,20.07
2018-11-27T09:13:52.124Z,20.73
2018-11-27T09:16:27.495Z,27.33
2018-11-27T09:19:03.917Z,20.23
2018-11-27T09:21:38.305Z,17.80
2018-11-27T09:24:12.388Z,21.43
2018-11-27T09:26:46.302Z,19.63
2018-11-27T09:29:22.630Z,25.87
2018-11-27T09:31:55.737Z,18.97
2018-11-27T09:34:29.223Z,20.80
2018-11-27T09:37:04.617Z,21.40
2018-11-27T09:39:39.115Z,19.47
2018-11-27T09:42:13.669Z,20.23
2018-11-27T09:44:47.131Z,18.97
2018-11-27T09:47:20.852Z,18.30
2018-11-27T09:49:54.568Z,20.47
2018-11-27T09:52:32.635Z,18.10
2018-11-27T09:55:11.681Z,22.30
2018-11-27T09:57:44.586Z,19.33
2018-11-27T10:00:40.477Z,17.47
2018-11-27T10:03:25.932Z,17.33
2018-11-27T10:05:59.183Z,18.37
2018-11-27T10:08:32.815Z,17.07
2018-11-27T10:11:08.265Z,16.17
2018-11-27T10:13:42.076Z,15.13
2018-11-27T10:16:21.549Z,15.97
2018-11-27T10:18:55.940Z,15.43
2018-11-27T10:21:29.023Z,18.30
2018-11-27T10:24:03.739Z,16.93
2018-11-27T10:26:37.261Z,17.80
2018-11-27T10:29:10.164Z,17.15
2018-11-27T10:31:44.216Z,17.33
2018-11-27T10:34:18.232Z,17.50
2018-11-27T10:36:51.856Z,18.20
2018-11-27T10:39:27.458Z,17.57
2018-11-27T10:42:00.694Z,18.20
2018-11-27T10:44:34.934Z,16.53
2018-11-27T10:47:11.219Z,36.03
2018-11-27T10:49:45.209Z,18.40
2018-11-27T10:52:19.632Z,16.93
2018-11-27T10:54:54.537Z,20.67
2018-11-27T10:57:28.463Z,17.53
2018-11-27T11:00:03.514Z,17.27
2018-11-27T11:02:37.791Z,17.67
2018-11-27T11:05:10.849Z,18.23
2018-11-27T11:07:45.485Z,17.47
2018-11-27T11:10:19.920Z,16.17
2018-11-27T11:12:52.981Z,15.97
2018-11-27T11:15:27.844Z,15.37
2018-11-27T11:18:01.152Z,15.63
2018-11-27T11:20:35.373Z,15.20
2018-11-27T11:23:12.890Z,16.17
2018-11-27T11:25:46.381Z,17.73
2018-11-27T11:28:27.007Z,13.23
2018-11-27T11:30:59.848Z,15.47
2018-11-27T11:33:34.397Z,14.53
2018-11-27T11:36:07.932Z,14.63
2018-11-27T11:38:41.257Z,15.27
2018-11-27T11:41:15.379Z,21.03
2018-11-27T11:43:49.008Z,14.10
2018-11-27T11:46:22.326Z,12.33
2018-11-27T11:49:01.869Z,11.90
2018-11-27T11:51:37.210Z,40.03
2018-11-27T11:54:11.014Z,11.80
2018-11-27T11:56:44.285Z,12.23
2018-11-27T11:59:17.597Z,11.73
2018-11-27T12:01:52.832Z,11.40
2018-11-27T12:04:28.759Z,13.33
2018-11-27T12:07:01.921Z,11.87
2018-11-27T12:09:35.494Z,13.45
2018-11-27T12:12:12.999Z,11.97
2018-11-27T12:14:48.121Z,12.43
2018-11-27T12:17:21.872Z,11.87
2018-11-27T12:19:54.925Z,14.07
2018-11-27T12:22:31.008Z,13.90
2018-11-27T12:25:07.773Z,14.07
2018-11-27T12:27:41.855Z,12.97
2018-11-27T12:30:26.891Z,15.03
2018-11-27T12:33:07.668Z,12.65
2018-11-27T12:35:40.710Z,15.40
2018-11-27T12:38:16.127Z,13.37
2018-11-27T12:40:51.838Z,15.23
2018-11-27T12:43:28.980Z,16.63
2018-11-27T12:46:04.079Z,13.38
2018-11-27T12:48:37.050Z,13.43
2018-11-27T12:51:11.644Z,13.57
2018-11-27T12:53:45.821Z,16.63
2018-11-27T12:56:21.553Z,12.80
2018-11-27T12:58:56.090Z,13.77
2018-11-27T13:01:30.541Z,14.13
2018-11-27T13:04:04.688Z,13.63
2018-11-27T13:06:40.947Z,14.13
2018-11-27T13:09:15.411Z,13.13
2018-11-27T13:11:53.145Z,12.00
2018-11-27T13:14:29.340Z,13.00
2018-11-27T13:17:04.703Z,14.47
2018-11-27T13:19:40.649Z,14.00
2018-11-27T13:22:16.248Z,13.90
2018-11-27T13:24:54.720Z,14.00
2018-11-27T13:27:29.574Z,13.27
2018-11-27T13:30:05.789Z,18.50
2018-11-27T13:32:47.488Z,15.00
2018-11-27T13:35:20.923Z,15.33
2018-11-27T13:38:03.454Z,12.77
2018-11-27T13:40:42.433Z,16.77
2018-11-27T13:43:32.306Z,17.23
2018-11-27T13:46:08.677Z,15.90
2018-11-27T13:48:48.721Z,14.43
2018-11-27T13:51:27.710Z,15.30
2018-11-27T13:54:05.136Z,15.23
2018-11-27T13:56:39.226Z,15.80
2018-11-27T13:59:16.842Z,14.97
2018-11-27T14:01:54.009Z,16.90
2018-11-27T14:04:31.575Z,16.77
2018-11-27T14:07:07.290Z,15.43
2018-11-27T14:09:41.688Z,15.23
2018-11-27T14:12:18.316Z,15.43
2018-11-27T14:14:56.110Z,16.17
2018-11-27T14:17:32.025Z,15.53
2018-11-27T14:20:06.779Z,15.97
2018-11-27T14:22:45.222Z,16.43
2018-11-27T14:25:19.117Z,16.50
2018-11-27T14:27:56.555Z,15.13
2018-11-27T14:30:31.807Z,17.53
2018-11-27T14:33:08.442Z,18.03
2018-11-27T14:35:44.242Z,16.93
2018-11-27T14:38:22.490Z,14.33
2018-11-27T14:41:01.719Z,16.97
2018-11-27T14:43:37.672Z,15.40
2018-11-27T14:46:14.706Z,14.30
2018-11-27T14:48:55.853Z,16.70
2018-11-27T14:51:30.809Z,14.23
2018-11-27T14:54:07.111Z,14.17
2018-11-27T14:56:44.307Z,14.07
2018-11-27T14:59:20.271Z,14.33
2018-11-27T15:01:56.809Z,14.47
2018-11-27T15:04:41.532Z,17.77
2018-11-27T15:07:17.317Z,15.87
2018-11-27T15:09:54.889Z,20.87
2018-11-27T15:12:38.249Z,15.93
2018-11-27T15:15:20.104Z,17.20
2018-11-27T15:17:54.520Z,15.87
2018-11-27T15:20:29.934Z,17.50
2018-11-27T15:23:09.475Z,14.60
2018-11-27T15:25:44.880Z,14.90
2018-11-27T15:28:19.416Z,15.70
2018-11-27T15:30:58.380Z,16.57
2018-11-27T15:33:34.912Z,14.33
2018-11-27T15:36:09.534Z,14.13
2018-11-27T15:38:45.566Z,17.57
2018-11-27T15:41:18.453Z,15.40
2018-11-27T15:43:54.506Z,15.97
2018-11-27T15:46:29.659Z,18.33
2018-11-27T15:49:08.090Z,16.33
2018-11-27T15:51:43.736Z,15.70
2018-11-27T15:54:17.785Z,15.23
2018-11-27T15:57:01.533Z,13.68
2018-11-27T15:59:37.728Z,15.33
2018-11-27T16:02:12.823Z,13.63
2018-11-27T16:04:51.343Z,12.83
2018-11-27T16:07:25.356Z,16.77
2018-11-27T16:10:01.562Z,15.93
2018-11-27T16:12:35.959Z,13.67
2018-11-27T16:15:14.822Z,14.00
2018-11-27T16:17:49.886Z,14.77
2018-11-27T16:20:24.595Z,12.80
2018-11-27T16:23:00.416Z,17.23
2018-11-27T16:25:34.940Z,15.83
2018-11-27T16:28:13.102Z,16.23
2018-11-27T16:30:49.382Z,17.00
2018-11-27T16:33:27.595Z,21.13
2018-11-27T16:36:04.020Z,18.90
2018-11-27T16:38:40.157Z,19.37
2018-11-27T16:41:17.939Z,20.90
2018-11-27T16:43:52.464Z,19.33
2018-11-27T16:46:26.161Z,18.10
2018-11-27T16:48:59.234Z,18.77
2018-11-27T16:51:33.785Z,20.17
2018-11-27T16:54:09.193Z,17.53
2018-11-27T16:56:46.128Z,21.63
2018-11-27T16:59:21.567Z,20.73
2018-11-27T17:01:55.398Z,19.73
2018-11-27T17:04:31.281Z,21.50
2018-11-27T17:07:08.020Z,21.27
2018-11-27T17:09:43.762Z,22.47
2018-11-27T17:12:17.760Z,21.98
2018-11-27T17:14:55.806Z,20.93
2018-11-27T17:17:29.345Z,23.87
2018-11-27T17:20:06.909Z,24.27
2018-11-27T17:22:44.614Z,28.30
2018-11-27T17:25:24.094Z,26.27
2018-11-27T17:28:17.084Z,22.08
2018-11-27T17:31:03.781Z,22.53
2018-11-27T17:34:06.359Z,22.00
2018-11-27T17:36:53.440Z,19.77
2018-11-27T17:39:29.062Z,22.87
2018-11-27T17:42:06.331Z,20.97
2018-11-27T17:44:41.275Z,20.23
2018-11-27T17:47:14.916Z,19.27
2018-11-27T17:49:49.385Z,18.23
2018-11-27T17:52:24.423Z,19.27
2018-11-27T17:55:02.094Z,19.50
2018-11-27T17:57:37.817Z,18.80
2018-11-27T18:00:31.600Z,22.30
2018-11-27T18:03:10.451Z,18.37
2018-11-27T18:05:46.652Z,19.90
2018-11-27T18:08:36.134Z,19.60
2018-11-27T18:11:11.621Z,24.80
2018-11-27T18:13:53.146Z,22.13
2018-11-27T18:16:27.061Z,33.83
2018-11-27T18:19:14.478Z,25.47
2018-11-27T18:21:53.811Z,23.47
2018-11-27T18:24:27.828Z,23.03
2018-11-27T18:27:03.267Z,21.60
2018-11-27T18:29:37.014Z,24.77
2018-11-27T18:32:14.702Z,24.27
2018-11-27T18:34:52.357Z,22.62
2018-11-27T18:37:28.849Z,23.27
2018-11-27T18:40:02.704Z,23.53
2018-11-27T18:42:36.481Z,23.70
2018-11-27T18:45:24.619Z,29.23
2018-11-27T18:48:00.035Z,23.27
2018-11-27T18:50:39.088Z,26.83
2018-11-27T18:53:14.179Z,27.07
2018-11-27T18:55:47.826Z,29.53
2018-11-27T18:58:41.336Z,29.20
2018-11-27T19:01:17.293Z,27.93
2018-11-27T19:03:51.173Z,25.52
2018-11-27T19:06:26.596Z,28.67
2018-11-27T19:09:00.205Z,26.97
2018-11-27T19:11:37.039Z,25.97
2018-11-27T19:14:12.522Z,25.57
2018-11-27T19:16:55.643Z,27.57
2018-11-27T19:19:29.748Z,28.57
2018-11-27T19:22:09.530Z,26.40
2018-11-27T19:24:44.819Z,28.07
2018-11-27T19:27:24.865Z,28.27
2018-11-27T19:30:00.360Z,24.97
2018-11-27T19:32:36.762Z,26.77
2018-11-27T19:35:15.799Z,28.43
2018-11-27T19:37:52.219Z,27.07
2018-11-27T19:40:26.584Z,29.03
2018-11-27T19:43:01.941Z,28.40
2018-11-27T19:45:38.840Z,31.17
2018-11-27T19:48:15.133Z,26.43
2018-11-27T19:50:52.287Z,27.30
2018-11-27T19:53:26.490Z,25.15
2018-11-27T19:56:03.137Z,27.20
2018-11-27T19:58:39.110Z,25.60
2018-11-27T20:01:14.565Z,25.50
2018-11-27T20:03:50.583Z,29.50
2018-11-27T20:06:25.553Z,27.77
2018-11-27T20:09:05.586Z,26.73
2018-11-27T20:11:40.243Z,27.08
2018-11-27T20:14:15.557Z,28.53
2018-11-27T20:16:51.004Z,28.70
2018-11-27T20:19:27.156Z,30.13
2018-11-27T20:22:04.151Z,26.57
2018-11-27T20:24:39.309Z,32.53
2018-11-27T20:27:15.890Z,31.30
2018-11-27T20:29:50.743Z,30.67
2018-11-27T20:32:27.601Z,30.40
2018-11-27T20:35:12.619Z,29.50
2018-11-27T20:37:54.405Z,29.33
2018-11-27T20:40:28.561Z,33.70
2018-11-27T20:43:06.729Z,32.50
2018-11-27T20:45:44.574Z,32.37
2018-11-27T20:48:22.126Z,35.07
2018-11-27T20:51:05.388Z,32.10
2018-11-27T20:53:49.526Z,32.63
2018-11-27T20:56:23.211Z,30.87
2018-11-27T20:59:01.939Z,34.80
2018-11-27T21:01:37.956Z,33.67
2018-11-27T21:04:12.847Z,32.47
2018-11-27T21:06:54.582Z,29.58
2018-11-27T21:09:28.749Z,33.20
2018-11-27T21:12:02.145Z,31.20
2018-11-27T21:14:38.045Z,35.27
2018-11-27T21:17:14.431Z,32.87
2018-11-27T21:19:49.713Z,33.80
2018-11-27T21:22:24.690Z,29.80
2018-11-27T21:25:01.926Z,30.37
2018-11-27T21:27:38.740Z,29.60
2018-11-27T21:30:19.787Z,31.70
2018-11-27T21:32:54.921Z,31.12
2018-11-27T21:35:28.906Z,29.77
2018-11-27T21:38:04.535Z,33.00
2018-11-27T21:40:38.538Z,31.65
2018-11-27T21:43:15.147Z,32.10
2018-11-27T21:46:04.929Z,33.40
2018-11-27T21:48:48.752Z,35.00
2018-11-27T21:51:49.119Z,31.52
2018-11-27T21:54:36.375Z,30.42
2018-11-27T21:57:11.641Z,33.47
2018-11-27T22:00:16.643Z,32.70
2018-11-27T22:03:14.549Z,33.13
2018-11-27T22:05:53.007Z,31.33
2018-11-27T22:08:28.094Z,33.63
2018-11-27T22:11:02.708Z,27.83
2018-11-27T22:13:40.376Z,32.67
2018-11-27T22:16:14.447Z,30.33
2018-11-27T22:18:53.316Z,30.37
2018-11-27T22:21:26.950Z,31.90
2018-11-27T22:24:00.993Z,31.37
2018-11-27T22:26:35.673Z,29.80
2018-11-27T22:29:14.284Z,33.47
2018-11-27T22:31:48.626Z,32.80
2018-11-27T22:34:24.212Z,30.83
2018-11-27T22:36:59.448Z,35.07
2018-11-27T22:39:33.687Z,30.83
2018-11-27T22:42:08.565Z,31.17
2018-11-27T22:44:46.957Z,31.03
2018-11-27T22:47:22.337Z,27.97
2018-11-27T22:49:55.670Z,26.90
2018-11-27T22:52:31.082Z,33.43
2018-11-27T22:55:05.298Z,32.83
2018-11-27T22:57:39.575Z,32.77
2018-11-27T23:00:32.850Z,27.83
2018-11-27T23:03:09.072Z,33.77
2018-11-27T23:05:43.556Z,31.27
2018-11-27T23:08:17.956Z,31.67
2018-11-27T23:10:56.063Z,31.93
2018-11-27T23:13:30.079Z,30.13
2018-11-27T23:16:04.558Z,30.83
2018-11-27T23:18:37.927Z,32.07
2018-11-27T23:21:11.952Z,31.67
2018-11-27T23:23:51.065Z,34.07
2018-11-27T23:26:25.261Z,31.50
2018-11-27T23:28:58.981Z,31.03
2018-11-27T23:31:32.207Z,31.47
2018-11-27T23:34:06.046Z,31.10
2018-11-27T23:36:40.432Z,30.53
2018-11-27T23:39:17.641Z,32.20
2018-11-27T23:41:52.473Z,31.57
2018-11-27T23:44:27.995Z,32.67
2018-11-27T23:47:02.643Z,29.87
2018-11-27T23:49:35.926Z,29.87
2018-11-27T23:52:13.121Z,30.10
2018-11-27T23:54:45.955Z,31.00
2018-11-27T23:57:18.918Z,31.73
2018-11-27T23:59:53.177Z,29.43
